createdAt,value
2022-08-08T00:02:03.078Z,19.11
2022-08-08T00:04:48.938Z,18.96
2022-08-08T00:07:48.541Z,19.03
2022-08-08T00:14:14.840Z,19.18
2022-08-08T00:17:58.646Z,19.08
2022-08-08T00:20:59.373Z,18.90
2022-08-08T00:23:47.754Z,19.01
2022-08-08T00:26:31.190Z,18.93
2022-08-08T00:30:15.589Z,18.79
2022-08-08T00:33:24.676Z,18.78
2022-08-08T00:36:27.362Z,18.68
2022-08-08T00:41:05.834Z,18.85
2022-08-08T00:42:36.679Z,18.74
2022-08-08T00:45:34.971Z,18.50
2022-08-08T00:48:59.057Z,18.73
2022-08-08T00:51:46.941Z,18.73
2022-08-08T00:55:12.284Z,18.66
2022-08-08T00:58:14.621Z,18.61
2022-08-08T01:00:57.901Z,18.58
2022-08-08T01:04:01.460Z,18.55
2022-08-08T01:07:10.757Z,18.51
2022-08-08T01:10:22.428Z,18.46
2022-08-08T01:13:38.080Z,18.29
2022-08-08T01:16:34.046Z,18.32
2022-08-08T01:20:16.495Z,18.38
2022-08-08T01:24:03.252Z,18.38
2022-08-08T01:26:33.908Z,18.31
2022-08-08T01:29:27.962Z,18.07
2022-08-08T01:33:23.335Z,18.24
2022-08-08T01:36:13.338Z,18.23
2022-08-08T01:38:53.111Z,18.21
2022-08-08T01:41:34.470Z,18.11
2022-08-08T01:44:27.249Z,17.95
2022-08-08T01:48:16.799Z,18.03
2022-08-08T01:50:42.796Z,18.15
2022-08-08T01:55:15.629Z,17.98
2022-08-08T01:56:46.910Z,18.04
2022-08-08T02:00:02.263Z,17.97
2022-08-08T02:03:54.308Z,17.96
2022-08-08T02:06:44.134Z,17.93
2022-08-08T02:10:02.273Z,17.93
2022-08-08T02:12:29.207Z,17.56
2022-08-08T02:15:04.374Z,17.68
2022-08-08T02:18:10.844Z,17.68
2022-08-08T02:21:18.093Z,17.57
2022-08-08T02:23:58.529Z,17.42
2022-08-08T02:26:45.380Z,17.69
2022-08-08T02:29:35.817Z,17.65
2022-08-08T02:32:57.549Z,17.45
2022-08-08T02:36:04.805Z,17.60
2022-08-08T02:39:41.159Z,17.50
2022-08-08T02:42:05.810Z,17.60
2022-08-08T02:45:05.032Z,17.47
2022-08-08T02:47:59.957Z,17.45
2022-08-08T02:50:56.034Z,17.48
2022-08-08T03:06:44.980Z,17.49
2022-08-08T03:10:17.744Z,17.41
2022-08-08T03:15:56.684Z,17.45
2022-08-08T03:18:04.737Z,17.39
2022-08-08T03:20:52.273Z,17.30
2022-08-08T03:23:24.523Z,17.11
2022-08-08T03:26:08.770Z,17.32
2022-08-08T03:28:44.670Z,17.25
2022-08-08T03:31:45.328Z,16.93
2022-08-08T03:34:20.744Z,17.15
2022-08-08T03:37:59.990Z,17.23
2022-08-08T03:40:29.181Z,17.11
2022-08-08T03:43:15.829Z,17.21
2022-08-08T03:46:07.442Z,17.17
2022-08-08T03:49:56.759Z,17.19
2022-08-08T03:51:50.265Z,17.18
2022-08-08T03:55:02.235Z,17.23
2022-08-08T03:58:09.610Z,17.12
2022-08-08T04:00:30.469Z,17.23
2022-08-08T04:03:11.584Z,17.36
2022-08-08T04:05:47.894Z,17.15
2022-08-08T04:08:32.965Z,17.09
2022-08-08T04:11:11.200Z,17.32
2022-08-08T04:14:03.387Z,17.08
2022-08-08T04:16:38.823Z,17.37
2022-08-08T04:20:28.801Z,17.42
2022-08-08T04:22:58.860Z,17.23
2022-08-08T04:25:30.217Z,17.43
2022-08-08T04:30:55.259Z,17.52
2022-08-08T04:33:29.061Z,17.59
2022-08-08T04:37:04.085Z,17.49
2022-08-08T04:40:05.229Z,17.30
2022-08-08T04:42:46.940Z,17.42
2022-08-08T04:45:39.196Z,17.69
2022-08-08T04:48:09.231Z,17.51
2022-08-08T04:50:46.074Z,17.61
2022-08-08T04:54:27.512Z,17.73
2022-08-08T04:57:06.551Z,17.84
2022-08-08T04:59:41.815Z,17.73
2022-08-08T05:02:13.646Z,17.68
2022-08-08T05:04:44.390Z,17.92
2022-08-08T05:07:14.833Z,18.01
2022-08-08T05:10:07.945Z,18.14
2022-08-08T05:13:00.172Z,17.89
2022-08-08T05:16:48.448Z,18.08
2022-08-08T05:18:24.265Z,18.20
2022-08-08T05:20:55.510Z,18.32
2022-08-08T05:23:24.346Z,18.32
2022-08-08T05:26:00.333Z,18.41
2022-08-08T05:28:55.963Z,18.36
2022-08-08T05:32:08.032Z,18.43
2022-08-08T05:34:49.234Z,18.56
2022-08-08T05:37:39.117Z,18.69
2022-08-08T05:40:18.222Z,18.66
2022-08-08T05:42:55.403Z,18.60
2022-08-08T05:45:41.642Z,18.72
2022-08-08T05:48:42.024Z,18.88
2022-08-08T05:51:15.724Z,18.92
2022-08-08T05:54:26.177Z,18.98
2022-08-08T05:59:52.424Z,19.13
2022-08-08T06:03:08.693Z,19.23
2022-08-08T06:05:56.740Z,19.33
2022-08-08T06:08:34.717Z,19.39
2022-08-08T06:11:13.366Z,19.42
2022-08-08T06:13:49.279Z,19.21
2022-08-08T06:16:27.371Z,19.66
2022-08-08T06:19:04.982Z,19.77
2022-08-08T06:21:48.776Z,19.64
2022-08-08T06:24:35.993Z,19.85
2022-08-08T06:27:11.196Z,19.98
2022-08-08T06:33:10.454Z,20.10
2022-08-08T06:36:32.102Z,20.16
2022-08-08T06:39:27.601Z,20.22
2022-08-08T06:42:03.257Z,20.30
2022-08-08T06:44:42.739Z,20.20
2022-08-08T06:47:14.567Z,20.31
2022-08-08T06:50:17.436Z,20.46
2022-08-08T06:52:47.895Z,20.50
2022-08-08T06:56:07.999Z,20.53
2022-08-08T06:58:39.859Z,20.56
2022-08-08T07:01:11.796Z,20.55
2022-08-08T07:04:37.121Z,20.67
2022-08-08T07:07:10.544Z,20.73
2022-08-08T07:10:00.932Z,20.77
2022-08-08T07:12:48.027Z,20.87
2022-08-08T07:16:13.412Z,20.83
2022-08-08T07:19:08.514Z,21.09
2022-08-08T07:22:05.304Z,20.88
2022-08-08T07:24:59.396Z,21.05
2022-08-08T07:28:02.630Z,21.11
2022-08-08T07:31:02.182Z,21.26
2022-08-08T07:33:59.325Z,21.36
2022-08-08T07:36:30.520Z,21.34
2022-08-08T07:39:29.457Z,21.50
2022-08-08T07:42:05.702Z,21.55
2022-08-08T07:45:34.614Z,21.63
2022-08-08T07:48:05.193Z,21.73
2022-08-08T07:51:01.211Z,21.60
2022-08-08T07:54:01.592Z,21.80
2022-08-08T07:56:36.235Z,21.79
2022-08-08T07:59:37.663Z,21.78
2022-08-08T08:02:55.822Z,22.08
2022-08-08T08:05:33.530Z,21.98
2022-08-08T08:08:37.363Z,22.30
2022-08-08T08:14:08.283Z,22.49
2022-08-08T08:17:12.561Z,22.50
2022-08-08T08:19:46.198Z,22.42
2022-08-08T08:23:07.639Z,22.64
2022-08-08T08:25:42.823Z,22.61
2022-08-08T08:28:24.156Z,22.76
2022-08-08T08:30:58.992Z,22.72
2022-08-08T08:34:18.654Z,22.91
2022-08-08T08:37:15.621Z,22.74
2022-08-08T08:40:13.129Z,22.71
2022-08-08T08:43:31.676Z,22.90
2022-08-08T08:46:05.743Z,22.86
2022-08-08T08:48:36.111Z,22.94
2022-08-08T08:51:10.816Z,23.24
2022-08-08T08:53:56.525Z,23.45
2022-08-08T08:56:32.749Z,23.36
2022-08-08T09:02:47.086Z,23.49
2022-08-08T09:05:54.357Z,23.69
2022-08-08T09:14:43.117Z,24.05
2022-08-08T09:17:41.896Z,23.59
2022-08-08T09:21:56.002Z,23.60
2022-08-08T09:24:27.223Z,23.94
2022-08-08T09:36:02.329Z,23.78
2022-08-08T09:39:00.631Z,23.91
2022-08-08T09:42:14.222Z,23.89
2022-08-08T09:44:40.821Z,23.89
2022-08-08T09:47:26.605Z,23.82
2022-08-08T09:50:26.924Z,23.58
2022-08-08T09:53:05.523Z,23.66
2022-08-08T09:56:03.337Z,23.48
2022-08-08T09:58:44.565Z,23.08
2022-08-08T10:01:15.646Z,23.43
2022-08-08T10:04:04.906Z,23.57
2022-08-08T10:06:35.810Z,23.57
2022-08-08T10:09:08.593Z,23.54
2022-08-08T10:12:28.317Z,23.53
2022-08-08T10:18:26.549Z,23.58
2022-08-08T10:21:32.723Z,23.52
2022-08-08T10:24:12.234Z,23.69
2022-08-08T10:27:12.940Z,23.96
2022-08-08T10:36:20.538Z,24.35
2022-08-08T10:38:56.272Z,24.29
2022-08-08T10:41:35.355Z,24.33
2022-08-08T10:44:06.648Z,24.16
2022-08-08T10:46:35.485Z,24.39
2022-08-08T10:49:03.521Z,24.41
2022-08-08T10:51:47.353Z,24.47
2022-08-08T10:54:25.142Z,24.23
2022-08-08T10:57:03.871Z,24.44
2022-08-08T11:02:48.197Z,24.03
2022-08-08T11:05:17.772Z,24.04
2022-08-08T11:08:37.120Z,23.97
2022-08-08T11:12:00.256Z,24.01
2022-08-08T11:14:25.828Z,23.67
2022-08-08T11:16:56.567Z,24.02
2022-08-08T11:19:31.685Z,24.24
2022-08-08T11:22:04.046Z,24.45
2022-08-08T11:24:35.829Z,24.54
2022-08-08T11:27:19.257Z,24.48
2022-08-08T11:31:04.056Z,24.66
2022-08-08T11:39:19.957Z,24.65
2022-08-08T11:42:13.878Z,24.60
2022-08-08T11:44:42.957Z,24.63
2022-08-08T11:48:04.531Z,24.56
2022-08-08T11:51:00.773Z,24.23
2022-08-08T11:54:31.529Z,24.29
2022-08-08T11:57:13.986Z,24.69
2022-08-08T12:00:02.772Z,24.50
2022-08-08T12:03:30.928Z,24.85
2022-08-08T12:06:18.764Z,24.59
2022-08-08T12:12:07.785Z,24.60
2022-08-08T12:14:35.410Z,24.60
2022-08-08T12:20:59.708Z,24.90
2022-08-08T12:23:43.130Z,24.89
2022-08-08T12:26:58.460Z,24.91
2022-08-08T12:29:53.793Z,25.14
2022-08-08T12:32:49.937Z,25.00
2022-08-08T12:35:52.427Z,25.25
2022-08-08T12:38:30.396Z,25.17
2022-08-08T12:41:35.188Z,25.14
2022-08-08T12:44:48.229Z,24.96
2022-08-08T12:48:04.257Z,25.01
2022-08-08T12:50:50.030Z,25.16
2022-08-08T12:54:04.675Z,25.39
2022-08-08T13:00:13.431Z,25.42
2022-08-08T13:03:22.938Z,25.40
2022-08-08T13:06:06.631Z,25.24
2022-08-08T13:08:56.405Z,25.44
2022-08-08T13:12:27.879Z,25.63
2022-08-08T13:15:44.388Z,25.24
2022-08-08T13:18:55.675Z,25.57
2022-08-08T13:21:36.429Z,25.44
2022-08-08T13:24:48.446Z,25.31
2022-08-08T13:27:42.092Z,25.02
2022-08-08T13:31:24.184Z,25.17
2022-08-08T13:34:42.136Z,24.89
2022-08-08T13:37:19.886Z,24.61
2022-08-08T13:40:46.149Z,25.13
2022-08-08T13:43:40.308Z,25.15
2022-08-08T13:46:26.532Z,24.75
2022-08-08T13:49:11.194Z,25.03
2022-08-08T13:52:04.916Z,25.08
2022-08-08T13:54:44.009Z,24.87
2022-08-08T13:58:08.407Z,25.08
2022-08-08T14:07:42.394Z,25.13
2022-08-08T14:10:41.947Z,25.26
2022-08-08T14:17:58.066Z,25.59
2022-08-08T14:20:55.893Z,25.62
2022-08-08T14:24:07.942Z,25.59
2022-08-08T14:26:52.096Z,25.45
2022-08-08T14:29:30.424Z,25.33
2022-08-08T14:32:53.117Z,25.46
2022-08-08T14:35:35.039Z,25.50
2022-08-08T14:38:58.671Z,25.58
2022-08-08T14:42:07.722Z,25.48
2022-08-08T14:44:39.405Z,25.50
2022-08-08T14:47:57.855Z,25.44
2022-08-08T14:50:38.793Z,25.29
2022-08-08T14:53:23.851Z,25.35
2022-08-08T14:56:02.233Z,25.15
2022-08-08T14:58:36.102Z,24.97
2022-08-08T15:01:07.468Z,25.20
2022-08-08T15:04:16.461Z,24.99
2022-08-08T15:06:48.545Z,25.30
2022-08-08T15:09:44.034Z,25.34
2022-08-08T15:12:12.384Z,25.54
2022-08-08T15:15:09.283Z,25.47
2022-08-08T15:18:03.176Z,25.37
2022-08-08T15:20:56.058Z,25.40
2022-08-08T15:23:23.421Z,25.40
2022-08-08T15:26:01.270Z,25.46
2022-08-08T15:28:34.119Z,25.36
2022-08-08T15:32:17.343Z,25.57
2022-08-08T15:34:40.894Z,25.42
2022-08-08T15:37:10.677Z,25.49
2022-08-08T15:39:46.447Z,25.50
2022-08-08T15:42:31.404Z,25.33
2022-08-08T15:45:06.171Z,25.27
2022-08-08T15:48:15.194Z,25.19
2022-08-08T15:51:06.371Z,25.03
2022-08-08T15:53:40.564Z,24.27
2022-08-08T15:57:13.259Z,25.07
2022-08-08T16:03:51.670Z,24.66
2022-08-08T16:06:47.446Z,24.78
2022-08-08T16:13:04.197Z,24.56
2022-08-08T16:13:10.007Z,24.55
2022-08-08T16:15:24.630Z,24.40
2022-08-08T16:18:17.182Z,24.40
2022-08-08T16:20:50.977Z,24.36
2022-08-08T16:23:19.479Z,23.99
2022-08-08T16:26:19.201Z,24.23
2022-08-08T16:29:36.974Z,24.08
2022-08-08T16:32:29.963Z,24.02
2022-08-08T16:35:25.307Z,23.93
2022-08-08T16:37:56.108Z,23.82
2022-08-08T16:40:25.250Z,23.71
2022-08-08T16:42:56.947Z,23.30
2022-08-08T16:46:37.728Z,23.74
2022-08-08T16:48:13.586Z,23.71
2022-08-08T16:50:41.885Z,23.66
2022-08-08T16:55:19.674Z,23.55
2022-08-08T16:56:00.498Z,23.59
2022-08-08T16:58:53.074Z,23.44
2022-08-08T17:01:46.120Z,23.45
2022-08-08T17:04:41.687Z,23.38
2022-08-08T17:10:29.144Z,23.22
2022-08-08T17:12:56.664Z,23.16
2022-08-08T17:15:25.032Z,23.22
2022-08-08T17:18:04.618Z,23.18
2022-08-08T17:20:39.896Z,23.30
2022-08-08T17:23:18.146Z,23.22
2022-08-08T17:25:57.712Z,23.08
2022-08-08T17:29:54.840Z,23.18
2022-08-08T17:34:37.062Z,22.96
2022-08-08T17:37:20.184Z,22.95
2022-08-08T17:40:06.111Z,22.89
2022-08-08T17:42:41.148Z,22.69
2022-08-08T17:45:23.721Z,22.97
2022-08-08T17:49:06.180Z,22.95
2022-08-08T17:52:00.618Z,22.98
2022-08-08T17:54:56.318Z,23.02
2022-08-08T18:01:05.675Z,22.97
2022-08-08T18:04:31.240Z,22.84
2022-08-08T18:07:03.080Z,22.79
2022-08-08T18:09:31.370Z,22.58
2022-08-08T18:12:12.728Z,22.71
2022-08-08T18:15:31.575Z,22.82
2022-08-08T18:18:29.489Z,22.71
2022-08-08T18:22:01.285Z,22.93
2022-08-08T18:28:23.623Z,22.51
2022-08-08T18:32:09.358Z,22.68
2022-08-08T18:34:42.696Z,22.64
2022-08-08T18:37:33.695Z,22.59
2022-08-08T18:39:59.537Z,22.58
2022-08-08T18:42:53.481Z,22.56
2022-08-08T18:46:00.430Z,22.46
2022-08-08T18:48:38.264Z,22.56
2022-08-08T18:57:44.833Z,22.46
2022-08-08T19:00:38.912Z,22.41
2022-08-08T19:04:05.266Z,22.35
2022-08-08T19:06:49.576Z,22.20
2022-08-08T19:09:17.404Z,22.25
2022-08-08T19:11:51.707Z,22.15
2022-08-08T19:14:23.257Z,22.02
2022-08-08T19:17:28.885Z,22.21
2022-08-08T19:23:18.378Z,21.96
2022-08-08T19:26:19.612Z,22.12
2022-08-08T19:28:44.639Z,22.13
2022-08-08T19:31:16.961Z,22.04
2022-08-08T19:34:04.368Z,22.11
2022-08-08T19:37:00.222Z,22.07
2022-08-08T19:39:35.415Z,21.74
2022-08-08T19:42:06.800Z,21.90
2022-08-08T19:44:45.685Z,21.86
2022-08-08T19:47:24.812Z,21.77
2022-08-08T19:50:17.254Z,21.86
2022-08-08T19:52:54.380Z,21.71
2022-08-08T19:55:23.666Z,21.67
2022-08-08T19:58:21.482Z,21.50
2022-08-08T20:01:18.351Z,21.75
2022-08-08T20:04:00.252Z,21.30
2022-08-08T20:06:56.915Z,21.47
2022-08-08T20:09:32.361Z,21.45
2022-08-08T20:12:00.397Z,21.63
2022-08-08T20:14:35.387Z,21.33
2022-08-08T20:17:28.358Z,21.24
2022-08-08T20:19:56.977Z,21.13
2022-08-08T20:22:53.847Z,21.38
2022-08-08T20:25:24.682Z,21.44
2022-08-08T20:27:55.906Z,21.30
2022-08-08T20:30:52.928Z,21.05
2022-08-08T20:36:08.722Z,20.87
2022-08-08T20:39:03.334Z,21.06
2022-08-08T20:41:30.983Z,20.99
2022-08-08T20:44:02.194Z,20.86
2022-08-08T20:46:30.115Z,21.12
2022-08-08T20:49:22.843Z,21.07
2022-08-08T20:52:25.398Z,20.87
2022-08-08T20:54:53.439Z,20.94
2022-08-08T20:57:47.551Z,20.83
2022-08-08T21:04:27.375Z,20.85
2022-08-08T21:06:56.775Z,20.45
2022-08-08T21:09:31.768Z,20.50
2022-08-08T21:12:13.207Z,20.68
2022-08-08T21:14:41.329Z,20.45
2022-08-08T21:17:17.310Z,20.25
2022-08-08T21:23:05.310Z,20.50
2022-08-08T21:26:01.797Z,20.55
2022-08-08T21:28:35.775Z,20.40
2022-08-08T21:31:22.972Z,20.36
2022-08-08T21:33:52.780Z,20.21
2022-08-08T21:36:28.334Z,20.26
2022-08-08T21:38:58.903Z,20.25
2022-08-08T21:41:38.020Z,19.78
2022-08-08T22:08:24.065Z,19.67
2022-08-08T22:10:54.383Z,19.28
2022-08-08T22:13:22.969Z,19.49
2022-08-08T22:15:58.314Z,19.01
2022-08-08T22:18:33.046Z,19.51
2022-08-08T22:21:13.740Z,19.21
2022-08-08T22:23:50.723Z,19.41
2022-08-08T22:27:02.207Z,19.34
2022-08-08T22:30:01.812Z,19.31
2022-08-08T22:32:49.268Z,18.97
2022-08-08T22:35:23.578Z,19.23
2022-08-08T22:37:54.625Z,18.92
2022-08-08T22:40:24.754Z,19.22
2022-08-08T22:43:01.104Z,19.20
2022-08-08T22:45:29.129Z,18.78
2022-08-08T22:47:58.682Z,18.87
2022-08-08T22:50:28.597Z,18.93
2022-08-08T22:54:32.196Z,19.01
2022-08-08T22:55:58.820Z,18.35
2022-08-08T22:58:33.281Z,18.53
2022-08-08T23:01:26.861Z,18.79
2022-08-08T23:04:31.869Z,18.59
2022-08-08T23:07:03.163Z,18.31
2022-08-08T23:09:39.378Z,18.76
2022-08-08T23:12:39.978Z,18.43
2022-08-08T23:16:37.965Z,18.65
2022-08-08T23:18:28.383Z,18.57
2022-08-08T23:21:03.690Z,18.67
2022-08-08T23:23:33.236Z,18.28
2022-08-08T23:26:55.776Z,18.57
2022-08-08T23:29:55.841Z,18.46
2022-08-08T23:32:51.393Z,18.28
2022-08-08T23:35:19.523Z,18.41
2022-08-08T23:38:02.614Z,18.19
2022-08-08T23:40:32.061Z,18.14
2022-08-08T23:43:02.745Z,18.37
2022-08-08T23:48:59.930Z,18.17
2022-08-08T23:49:02.866Z,18.22
2022-08-08T23:52:05.121Z,18.20
2022-08-08T23:54:41.864Z,18.00
2022-08-08T23:57:25.114Z,18.13
